sensor_id;sensor_type;location;lat;lon;timestamp;pressure;altitude;pressure_sealevel;temperature;humidity
75594;BME280;64176;49.156;7.810;2022-12-07T00:01:37;99356.25;;;2.58;92.98
75594;BME280;64176;49.156;7.810;2022-12-07T00:04:22;99350.50;;;2.64;92.56
75594;BME280;64176;49.156;7.810;2022-12-07T00:07:06;99351.88;;;2.55;92.79
75594;BME280;64176;49.156;7.810;2022-12-07T00:09:52;99346.84;;;2.57;92.49
75594;BME280;64176;49.156;7.810;2022-12-07T00:12:41;99363.94;;;2.37;93.30
75594;BME280;64176;49.156;7.810;2022-12-07T00:15:26;99354.19;;;2.27;93.66
75594;BME280;64176;49.156;7.810;2022-12-07T00:18:10;99345.94;;;2.34;93.00
75594;BME280;64176;49.156;7.810;2022-12-07T00:21:01;99349.78;;;2.45;93.02
75594;BME280;64176;49.156;7.810;2022-12-07T00:23:49;99349.31;;;2.55;92.81
75594;BME280;64176;49.156;7.810;2022-12-07T00:26:41;99354.69;;;2.62;92.33
75594;BME280;64176;49.156;7.810;2022-12-07T00:29:30;99354.69;;;2.62;92.51
75594;BME280;64176;49.156;7.810;2022-12-07T00:32:17;99358.44;;;2.49;92.17
75594;BME280;64176;49.156;7.810;2022-12-07T00:35:01;99352.91;;;2.38;93.30
75594;BME280;64176;49.156;7.810;2022-12-07T00:37:47;99355.75;;;2.46;93.34
75594;BME280;64176;49.156;7.810;2022-12-07T00:40:31;99356.09;;;2.55;92.65
75594;BME280;64176;49.156;7.810;2022-12-07T00:43:17;99355.25;;;2.54;92.66
75594;BME280;64176;49.156;7.810;2022-12-07T00:46:01;99351.88;;;2.55;92.46
75594;BME280;64176;49.156;7.810;2022-12-07T00:48:46;99361.41;;;2.60;92.49
75594;BME280;64176;49.156;7.810;2022-12-07T00:51:31;99353.56;;;2.55;92.42
75594;BME280;64176;49.156;7.810;2022-12-07T00:54:17;99351.25;;;2.61;92.49
75594;BME280;64176;49.156;7.810;2022-12-07T00:57:01;99361.47;;;2.61;92.42
75594;BME280;64176;49.156;7.810;2022-12-07T00:59:45;99344.88;;;2.50;92.71
75594;BME280;64176;49.156;7.810;2022-12-07T01:02:32;99349.84;;;2.47;92.59
75594;BME280;64176;49.156;7.810;2022-12-07T01:05:16;99354.56;;;2.59;92.37
75594;BME280;64176;49.156;7.810;2022-12-07T01:08:00;99350.09;;;2.53;91.72
75594;BME280;64176;49.156;7.810;2022-12-07T01:10:44;99348.44;;;2.53;92.44
75594;BME280;64176;49.156;7.810;2022-12-07T01:13:28;99351.94;;;2.57;92.30
75594;BME280;64176;49.156;7.810;2022-12-07T01:16:16;99350.25;;;2.58;92.64
75594;BME280;64176;49.156;7.810;2022-12-07T01:19:01;99347.78;;;2.59;92.51
75594;BME280;64176;49.156;7.810;2022-12-07T01:21:45;99352.25;;;2.42;92.64
75594;BME280;64176;49.156;7.810;2022-12-07T01:24:32;99346.75;;;2.33;92.89
75594;BME280;64176;49.156;7.810;2022-12-07T01:27:19;99348.50;;;2.34;93.07
75594;BME280;64176;49.156;7.810;2022-12-07T01:30:05;99345.47;;;2.43;92.69
75594;BME280;64176;49.156;7.810;2022-12-07T01:32:50;99353.94;;;2.43;92.66
75594;BME280;64176;49.156;7.810;2022-12-07T01:35:36;99340.97;;;2.37;92.96
75594;BME280;64176;49.156;7.810;2022-12-07T01:38:22;99343.06;;;2.47;92.54
75594;BME280;64176;49.156;7.810;2022-12-07T01:41:07;99346.00;;;2.36;93.06
75594;BME280;64176;49.156;7.810;2022-12-07T01:47:03;99346.06;;;2.37;92.80
75594;BME280;64176;49.156;7.810;2022-12-07T01:49:48;99360.75;;;2.43;92.83
75594;BME280;64176;49.156;7.810;2022-12-07T01:52:33;99361.31;;;2.36;92.52
75594;BME280;64176;49.156;7.810;2022-12-07T01:55:20;99341.09;;;2.40;92.52
75594;BME280;64176;49.156;7.810;2022-12-07T01:58:07;99342.16;;;2.25;93.28
75594;BME280;64176;49.156;7.810;2022-12-07T02:00:51;99351.13;;;2.36;92.79
75594;BME280;64176;49.156;7.810;2022-12-07T02:03:41;99347.25;;;2.45;92.67
75594;BME280;64176;49.156;7.810;2022-12-07T02:06:26;99337.75;;;2.41;92.13
75594;BME280;64176;49.156;7.810;2022-12-07T02:09:10;99335.34;;;2.24;92.98
75594;BME280;64176;49.156;7.810;2022-12-07T02:11:55;99333.59;;;2.23;93.35
75594;BME280;64176;49.156;7.810;2022-12-07T02:14:39;99334.66;;;2.28;92.94
75594;BME280;64176;49.156;7.810;2022-12-07T02:17:59;99342.25;;;2.26;92.89
75594;BME280;64176;49.156;7.810;2022-12-07T02:21:07;99350.19;;;2.34;92.27
75594;BME280;64176;49.156;7.810;2022-12-07T02:29:58;99339.56;;;2.23;92.13
75594;BME280;64176;49.156;7.810;2022-12-07T02:38:48;99334.53;;;2.25;91.61
75594;BME280;64176;49.156;7.810;2022-12-07T02:44:26;99330.75;;;2.15;92.41
75594;BME280;64176;49.156;7.810;2022-12-07T02:47:16;99325.25;;;2.27;92.20
75594;BME280;64176;49.156;7.810;2022-12-07T02:50:05;99320.03;;;2.24;92.05
75594;BME280;64176;49.156;7.810;2022-12-07T02:52:50;99324.16;;;2.20;92.27
75594;BME280;64176;49.156;7.810;2022-12-07T02:55:41;99320.25;;;2.07;92.41
75594;BME280;64176;49.156;7.810;2022-12-07T03:01:30;99316.13;;;2.11;92.49
75594;BME280;64176;49.156;7.810;2022-12-07T03:10:28;99316.31;;;2.15;91.93
75594;BME280;64176;49.156;7.810;2022-12-07T03:16:27;99316.50;;;2.20;92.07
75594;BME280;64176;49.156;7.810;2022-12-07T03:19:20;99324.66;;;2.11;92.53
75594;BME280;64176;49.156;7.810;2022-12-07T03:22:10;99328.25;;;2.16;92.14
75594;BME280;64176;49.156;7.810;2022-12-07T03:24:58;99323.22;;;2.18;92.33
75594;BME280;64176;49.156;7.810;2022-12-07T03:27:54;99306.56;;;2.05;92.67
75594;BME280;64176;49.156;7.810;2022-12-07T03:30:47;99312.53;;;2.06;92.65
75594;BME280;64176;49.156;7.810;2022-12-07T03:36:39;99309.13;;;2.05;92.88
75594;BME280;64176;49.156;7.810;2022-12-07T03:39:44;99309.25;;;2.08;92.38
75594;BME280;64176;49.156;7.810;2022-12-07T03:42:32;99304.09;;;2.07;92.37
75594;BME280;64176;49.156;7.810;2022-12-07T03:45:19;99306.50;;;2.04;92.82
75594;BME280;64176;49.156;7.810;2022-12-07T03:48:26;99296.38;;;2.05;92.69
75594;BME280;64176;49.156;7.810;2022-12-07T03:51:46;99304.44;;;2.16;92.46
75594;BME280;64176;49.156;7.810;2022-12-07T03:54:49;99301.09;;;2.17;92.11
75594;BME280;64176;49.156;7.810;2022-12-07T03:57:39;99305.38;;;2.18;92.03
75594;BME280;64176;49.156;7.810;2022-12-07T04:00:28;99297.19;;;2.04;92.14
75594;BME280;64176;49.156;7.810;2022-12-07T04:03:13;99296.75;;;1.94;92.78
75594;BME280;64176;49.156;7.810;2022-12-07T04:06:00;99298.81;;;2.02;92.18
75594;BME280;64176;49.156;7.810;2022-12-07T04:08:44;99292.09;;;2.04;92.59
75594;BME280;64176;49.156;7.810;2022-12-07T04:11:28;99294.81;;;1.88;92.41
75594;BME280;64176;49.156;7.810;2022-12-07T04:14:14;99289.53;;;2.04;92.47
75594;BME280;64176;49.156;7.810;2022-12-07T04:17:08;99287.66;;;2.00;92.02
75594;BME280;64176;49.156;7.810;2022-12-07T04:19:52;99287.38;;;1.93;92.41
75594;BME280;64176;49.156;7.810;2022-12-07T04:22:41;99292.59;;;1.96;92.63
75594;BME280;64176;49.156;7.810;2022-12-07T04:25:25;99296.25;;;2.02;92.27
75594;BME280;64176;49.156;7.810;2022-12-07T04:28:09;99305.63;;;2.03;92.29
75594;BME280;64176;49.156;7.810;2022-12-07T04:30:53;99301.47;;;2.05;91.80
75594;BME280;64176;49.156;7.810;2022-12-07T04:33:37;99303.75;;;1.99;92.14
75594;BME280;64176;49.156;7.810;2022-12-07T04:36:21;99300.78;;;1.89;92.60
75594;BME280;64176;49.156;7.810;2022-12-07T04:39:09;99304.34;;;1.92;91.98
75594;BME280;64176;49.156;7.810;2022-12-07T04:41:57;99304.69;;;2.01;92.06
75594;BME280;64176;49.156;7.810;2022-12-07T04:44:44;99292.34;;;1.90;92.37
75594;BME280;64176;49.156;7.810;2022-12-07T04:47:28;99305.59;;;1.81;92.45
75594;BME280;64176;49.156;7.810;2022-12-07T04:50:12;99295.09;;;1.94;92.19
75594;BME280;64176;49.156;7.810;2022-12-07T04:52:56;99299.75;;;1.83;92.19
75594;BME280;64176;49.156;7.810;2022-12-07T04:55:45;99293.22;;;1.90;92.37
75594;BME280;64176;49.156;7.810;2022-12-07T04:58:29;99295.59;;;1.86;92.77
75594;BME280;64176;49.156;7.810;2022-12-07T05:01:14;99293.22;;;1.90;92.18
75594;BME280;64176;49.156;7.810;2022-12-07T05:03:59;99288.19;;;1.92;92.16
75594;BME280;64176;49.156;7.810;2022-12-07T05:06:43;99292.09;;;1.83;92.23
75594;BME280;64176;49.156;7.810;2022-12-07T05:09:27;99299.00;;;1.86;92.63
75594;BME280;64176;49.156;7.810;2022-12-07T05:12:14;99293.34;;;1.72;92.48
75594;BME280;64176;49.156;7.810;2022-12-07T05:14:58;99302.22;;;1.82;92.69
75594;BME280;64176;49.156;7.810;2022-12-07T05:17:42;99303.09;;;1.82;92.37
75594;BME280;64176;49.156;7.810;2022-12-07T05:20:26;99300.00;;;1.69;93.42
75594;BME280;64176;49.156;7.810;2022-12-07T05:23:10;99295.84;;;1.71;93.14
75594;BME280;64176;49.156;7.810;2022-12-07T05:25:54;99298.44;;;1.72;92.93
75594;BME280;64176;49.156;7.810;2022-12-07T05:28:38;99279.69;;;1.70;93.12
75594;BME280;64176;49.156;7.810;2022-12-07T05:31:23;99297.44;;;1.69;93.55
75594;BME280;64176;49.156;7.810;2022-12-07T05:34:08;99275.97;;;1.62;93.06
75594;BME280;64176;49.156;7.810;2022-12-07T05:36:52;99287.44;;;1.73;93.13
75594;BME280;64176;49.156;7.810;2022-12-07T05:39:38;99298.25;;;1.89;93.08
75594;BME280;64176;49.156;7.810;2022-12-07T05:42:24;99299.59;;;2.01;92.66
75594;BME280;64176;49.156;7.810;2022-12-07T05:45:12;99288.47;;;1.99;91.99
75594;BME280;64176;49.156;7.810;2022-12-07T05:47:58;99297.06;;;2.01;91.79
75594;BME280;64176;49.156;7.810;2022-12-07T05:50:42;99288.75;;;1.85;92.08
75594;BME280;64176;49.156;7.810;2022-12-07T05:53:26;99296.81;;;1.95;92.29
75594;BME280;64176;49.156;7.810;2022-12-07T05:56:10;99297.19;;;2.04;91.96
75594;BME280;64176;49.156;7.810;2022-12-07T05:58:54;99301.22;;;1.99;92.23
75594;BME280;64176;49.156;7.810;2022-12-07T06:02:09;99299.69;;;1.82;92.44
75594;BME280;64176;49.156;7.810;2022-12-07T06:04:53;99300.75;;;1.87;93.20
75594;BME280;64176;49.156;7.810;2022-12-07T06:07:42;99296.13;;;1.99;92.38
75594;BME280;64176;49.156;7.810;2022-12-07T06:10:28;99297.06;;;2.01;92.26
75594;BME280;64176;49.156;7.810;2022-12-07T06:13:12;99299.06;;;2.08;92.24
75594;BME280;64176;49.156;7.810;2022-12-07T06:15:59;99293.19;;;2.11;92.42
75594;BME280;64176;49.156;7.810;2022-12-07T06:18:43;99284.38;;;2.03;92.34
75594;BME280;64176;49.156;7.810;2022-12-07T06:21:30;99282.53;;;1.99;92.30
75594;BME280;64176;49.156;7.810;2022-12-07T06:24:15;99289.53;;;2.04;91.89
75594;BME280;64176;49.156;7.810;2022-12-07T06:27:02;99295.44;;;2.03;92.10
75594;BME280;64176;49.156;7.810;2022-12-07T06:29:47;99295.44;;;2.03;92.56
75594;BME280;64176;49.156;7.810;2022-12-07T06:32:33;99294.34;;;1.97;92.27
75594;BME280;64176;49.156;7.810;2022-12-07T06:35:20;99301.72;;;1.91;92.51
75594;BME280;64176;49.156;7.810;2022-12-07T06:38:04;99300.25;;;1.96;92.35
75594;BME280;64176;49.156;7.810;2022-12-07T06:40:48;99301.13;;;1.96;92.51
75594;BME280;64176;49.156;7.810;2022-12-07T06:43:35;99300.31;;;1.97;92.56
75594;BME280;64176;49.156;7.810;2022-12-07T06:46:25;99304.03;;;1.85;92.78
75594;BME280;64176;49.156;7.810;2022-12-07T06:49:11;99295.22;;;1.76;93.33
75594;BME280;64176;49.156;7.810;2022-12-07T06:51:55;99296.81;;;1.95;92.72
75594;BME280;64176;49.156;7.810;2022-12-07T06:54:39;99295.88;;;1.93;92.70
75594;BME280;64176;49.156;7.810;2022-12-07T06:57:23;99301.22;;;1.99;92.24
75594;BME280;64176;49.156;7.810;2022-12-07T07:00:10;99296.31;;;2.04;92.38
75594;BME280;64176;49.156;7.810;2022-12-07T07:02:55;99286.75;;;1.98;92.62
75594;BME280;64176;49.156;7.810;2022-12-07T07:05:42;99282.09;;;1.88;92.71
75594;BME280;64176;49.156;7.810;2022-12-07T07:08:26;99288.13;;;1.90;92.64
75594;BME280;64176;49.156;7.810;2022-12-07T07:11:15;99284.25;;;2.00;92.52
75594;BME280;64176;49.156;7.810;2022-12-07T07:13:59;99292.72;;;1.99;92.73
75594;BME280;64176;49.156;7.810;2022-12-07T07:16:48;99286.78;;;2.00;92.56
75594;BME280;64176;49.156;7.810;2022-12-07T07:19:32;99292.22;;;2.07;92.51
75594;BME280;64176;49.156;7.810;2022-12-07T07:22:16;99295.72;;;2.09;92.20
75594;BME280;64176;49.156;7.810;2022-12-07T07:25:00;99288.97;;;2.11;92.22
75594;BME280;64176;49.156;7.810;2022-12-07T07:27:46;99305.25;;;2.15;92.44
75594;BME280;64176;49.156;7.810;2022-12-07T07:30:35;99299.06;;;2.08;92.35
75594;BME280;64176;49.156;7.810;2022-12-07T07:33:19;99312.84;;;2.13;92.33
75594;BME280;64176;49.156;7.810;2022-12-07T07:36:04;99301.22;;;2.20;92.02
75594;BME280;64176;49.156;7.810;2022-12-07T07:38:50;99311.91;;;2.11;91.99
75594;BME280;64176;49.156;7.810;2022-12-07T07:41:34;99299.47;;;2.19;92.20
75594;BME280;64176;49.156;7.810;2022-12-07T07:44:22;99309.09;;;2.26;91.35
75594;BME280;64176;49.156;7.810;2022-12-07T07:47:06;99306.31;;;2.20;91.85
75594;BME280;64176;49.156;7.810;2022-12-07T07:49:50;99307.28;;;2.24;91.72
75594;BME280;64176;49.156;7.810;2022-12-07T07:52:34;99305.72;;;2.27;91.14
75594;BME280;64176;49.156;7.810;2022-12-07T07:55:18;99301.66;;;2.32;90.74
75594;BME280;64176;49.156;7.810;2022-12-07T07:58:01;99304.28;;;2.34;90.26
75594;BME280;64176;49.156;7.810;2022-12-07T08:00:46;99315.13;;;2.28;89.32
75594;BME280;64176;49.156;7.810;2022-12-07T08:03:29;99321.16;;;2.30;89.66
75594;BME280;64176;49.156;7.810;2022-12-07T08:06:16;99325.38;;;2.30;90.43
75594;BME280;64176;49.156;7.810;2022-12-07T08:09:00;99321.38;;;2.36;91.74
75594;BME280;64176;49.156;7.810;2022-12-07T08:11:49;99327.41;;;2.38;91.07
75594;BME280;64176;49.156;7.810;2022-12-07T08:14:33;99328.34;;;2.40;91.86
75594;BME280;64176;49.156;7.810;2022-12-07T08:17:18;99329.09;;;2.38;91.60
75594;BME280;64176;49.156;7.810;2022-12-07T08:20:02;99326.41;;;2.35;91.84
75594;BME280;64176;49.156;7.810;2022-12-07T08:22:49;99332.81;;;2.46;91.50
75594;BME280;64176;49.156;7.810;2022-12-07T08:25:35;99331.25;;;2.49;90.85
75594;BME280;64176;49.156;7.810;2022-12-07T08:28:22;99337.22;;;2.50;90.80
75594;BME280;64176;49.156;7.810;2022-12-07T08:31:09;99327.03;;;2.50;91.30
75594;BME280;64176;49.156;7.810;2022-12-07T08:33:54;99319.53;;;2.54;91.02
75594;BME280;64176;49.156;7.810;2022-12-07T08:36:39;99327.03;;;2.50;91.23
75594;BME280;64176;49.156;7.810;2022-12-07T08:39:25;99323.88;;;2.57;90.78
75594;BME280;64176;49.156;7.810;2022-12-07T08:42:12;99333.56;;;2.66;88.93
75594;BME280;64176;49.156;7.810;2022-12-07T08:44:56;99328.81;;;2.75;89.27
75594;BME280;64176;49.156;7.810;2022-12-07T08:47:57;99332.34;;;2.78;89.03
75594;BME280;64176;49.156;7.810;2022-12-07T08:50:47;99334.56;;;2.69;89.92
75594;BME280;64176;49.156;7.810;2022-12-07T08:53:31;99337.84;;;2.67;89.38
75594;BME280;64176;49.156;7.810;2022-12-07T08:56:16;99339.91;;;2.75;90.28
75594;BME280;64176;49.156;7.810;2022-12-07T08:59:01;99340.66;;;2.73;89.63
75594;BME280;64176;49.156;7.810;2022-12-07T09:01:47;99342.41;;;2.74;90.24
75594;BME280;64176;49.156;7.810;2022-12-07T09:04:32;99336.50;;;2.76;90.67
75594;BME280;64176;49.156;7.810;2022-12-07T09:07:18;99332.69;;;2.87;89.98
75594;BME280;64176;49.156;7.810;2022-12-07T09:10:03;99325.75;;;2.83;89.88
75594;BME280;64176;49.156;7.810;2022-12-07T09:12:47;99337.09;;;2.91;89.51
75594;BME280;64176;49.156;7.810;2022-12-07T09:15:31;99333.50;;;2.86;90.07
75594;BME280;64176;49.156;7.810;2022-12-07T09:18:18;99332.69;;;2.87;90.55
75594;BME280;64176;49.156;7.810;2022-12-07T09:21:02;99329.38;;;2.90;90.50
75594;BME280;64176;49.156;7.810;2022-12-07T09:23:47;99336.56;;;3.00;89.80
75594;BME280;64176;49.156;7.810;2022-12-07T09:26:31;99335.00;;;3.04;90.03
75594;BME280;64176;49.156;7.810;2022-12-07T09:29:15;99329.81;;;3.02;89.41
75594;BME280;64176;49.156;7.810;2022-12-07T09:31:59;99332.25;;;2.99;88.99
75594;BME280;64176;49.156;7.810;2022-12-07T09:34:45;99324.31;;;2.91;88.74
75594;BME280;64176;49.156;7.810;2022-12-07T09:37:29;99313.75;;;3.05;89.12
75594;BME280;64176;49.156;7.810;2022-12-07T09:40:17;99325.59;;;3.26;88.53
75594;BME280;64176;49.156;7.810;2022-12-07T09:43:15;99321.41;;;3.28;87.97
75594;BME280;64176;49.156;7.810;2022-12-07T09:46:03;99319.56;;;3.24;89.22
75594;BME280;64176;49.156;7.810;2022-12-07T09:48:49;99313.81;;;3.30;88.85
75594;BME280;64176;49.156;7.810;2022-12-07T09:51:34;99307.59;;;3.23;87.96
75594;BME280;64176;49.156;7.810;2022-12-07T09:54:17;99315.59;;;3.33;88.21
75594;BME280;64176;49.156;7.810;2022-12-07T09:57:01;99303.47;;;3.27;87.96
75594;BME280;64176;49.156;7.810;2022-12-07T09:59:46;99313.50;;;3.46;88.04
75594;BME280;64176;49.156;7.810;2022-12-07T10:05:18;99312.06;;;3.53;87.97
75594;BME280;64176;49.156;7.810;2022-12-07T10:08:04;99309.28;;;3.47;86.57
75594;BME280;64176;49.156;7.810;2022-12-07T10:10:52;99297.13;;;3.40;86.54
75594;BME280;64176;49.156;7.810;2022-12-07T10:13:38;99305.97;;;3.49;86.77
75594;BME280;64176;49.156;7.810;2022-12-07T10:16:40;99295.13;;;3.56;86.82
75594;BME280;64176;49.156;7.810;2022-12-07T10:19:32;99288.91;;;3.74;87.28
75594;BME280;64176;49.156;7.810;2022-12-07T10:22:22;99303.56;;;3.79;86.54
75594;BME280;64176;49.156;7.810;2022-12-07T10:25:18;99295.94;;;3.81;87.12
75594;BME280;64176;49.156;7.810;2022-12-07T10:28:13;99292.00;;;3.90;86.98
75594;BME280;64176;49.156;7.810;2022-12-07T10:31:03;99298.56;;;3.82;86.57
75594;BME280;64176;49.156;7.810;2022-12-07T10:34:01;99292.41;;;3.77;86.30
75594;BME280;64176;49.156;7.810;2022-12-07T10:36:48;99290.72;;;3.78;86.13
75594;BME280;64176;49.156;7.810;2022-12-07T10:42:31;99284.59;;;3.73;86.04
75594;BME280;64176;49.156;7.810;2022-12-07T10:45:18;99282.97;;;3.75;86.32
75594;BME280;64176;49.156;7.810;2022-12-07T11:18:41;99240.19;;;3.96;84.02
75594;BME280;64176;49.156;7.810;2022-12-07T11:24:49;99230.31;;;4.07;83.80
75594;BME280;64176;49.156;7.810;2022-12-07T11:30:42;99231.34;;;4.13;84.10
75594;BME280;64176;49.156;7.810;2022-12-07T11:33:47;99232.16;;;4.12;83.91
75594;BME280;64176;49.156;7.810;2022-12-07T11:36:41;99229.72;;;4.15;84.46
75594;BME280;64176;49.156;7.810;2022-12-07T11:39:41;99232.31;;;4.17;83.74
75594;BME280;64176;49.156;7.810;2022-12-07T11:42:35;99231.25;;;4.10;83.16
75594;BME280;64176;49.156;7.810;2022-12-07T11:45:27;99213.13;;;4.02;83.60
75594;BME280;64176;49.156;7.810;2022-12-07T11:50:57;99217.88;;;4.19;83.34
75594;BME280;64176;49.156;7.810;2022-12-07T11:53:44;99213.34;;;4.10;81.89
75594;BME280;64176;49.156;7.810;2022-12-07T11:56:33;99215.28;;;4.17;83.05
75594;BME280;64176;49.156;7.810;2022-12-07T11:59:43;99209.31;;;4.17;82.21
75594;BME280;64176;49.156;7.810;2022-12-07T12:02:53;99207.34;;;4.08;81.54
75594;BME280;64176;49.156;7.810;2022-12-07T12:05:42;99193.59;;;4.05;82.12
75594;BME280;64176;49.156;7.810;2022-12-07T12:08:39;99214.03;;;4.05;81.49
75594;BME280;64176;49.156;7.810;2022-12-07T12:17:23;99212.78;;;3.92;78.75
75594;BME280;64176;49.156;7.810;2022-12-07T12:21:00;99209.59;;;3.99;78.71
75594;BME280;64176;49.156;7.810;2022-12-07T12:26:33;99203.59;;;3.98;79.54
75594;BME280;64176;49.156;7.810;2022-12-07T12:29:27;99196.81;;;3.99;78.45
75594;BME280;64176;49.156;7.810;2022-12-07T12:32:21;99204.47;;;3.99;79.30
75594;BME280;64176;49.156;7.810;2022-12-07T12:38:32;99192.25;;;3.89;78.35
75594;BME280;64176;49.156;7.810;2022-12-07T12:47:04;99188.41;;;4.03;79.60
75594;BME280;64176;49.156;7.810;2022-12-07T12:50:12;99185.91;;;4.05;79.00
75594;BME280;64176;49.156;7.810;2022-12-07T12:53:21;99179.56;;;3.92;78.91
75594;BME280;64176;49.156;7.810;2022-12-07T12:59:25;99165.63;;;3.82;79.04
75594;BME280;64176;49.156;7.810;2022-12-07T13:02:35;99184.84;;;3.98;79.02
75594;BME280;64176;49.156;7.810;2022-12-07T13:08:25;99173.91;;;4.02;80.22
75594;BME280;64176;49.156;7.810;2022-12-07T13:11:36;99151.28;;;3.86;80.25
75594;BME280;64176;49.156;7.810;2022-12-07T13:20:48;99167.53;;;3.89;80.49
75594;BME280;64176;49.156;7.810;2022-12-07T13:29:13;99144.75;;;3.95;80.81
75594;BME280;64176;49.156;7.810;2022-12-07T13:32:00;99147.03;;;3.88;80.69
75594;BME280;64176;49.156;7.810;2022-12-07T13:34:46;99160.84;;;3.93;81.13
75594;BME280;64176;49.156;7.810;2022-12-07T13:37:34;99159.94;;;3.91;80.58
75594;BME280;64176;49.156;7.810;2022-12-07T13:40:23;99148.78;;;3.89;79.69
75594;BME280;64176;49.156;7.810;2022-12-07T13:43:15;99155.63;;;3.90;81.04
75594;BME280;64176;49.156;7.810;2022-12-07T13:46:09;99147.19;;;3.92;80.82
75594;BME280;64176;49.156;7.810;2022-12-07T13:49:00;99153.84;;;3.87;80.90
75594;BME280;64176;49.156;7.810;2022-12-07T13:51:49;99139.06;;;3.77;80.03
75594;BME280;64176;49.156;7.810;2022-12-07T13:57:41;99152.84;;;3.82;81.36
75594;BME280;64176;49.156;7.810;2022-12-07T14:00:27;99145.69;;;3.71;80.93
75594;BME280;64176;49.156;7.810;2022-12-07T14:09:24;99145.97;;;3.80;81.02
75594;BME280;64176;49.156;7.810;2022-12-07T14:12:12;99137.41;;;3.79;80.70
75594;BME280;64176;49.156;7.810;2022-12-07T14:14:56;99144.25;;;3.80;80.47
75594;BME280;64176;49.156;7.810;2022-12-07T14:17:56;99145.31;;;3.87;80.82
75594;BME280;64176;49.156;7.810;2022-12-07T14:20:47;99144.50;;;3.88;80.67
75594;BME280;64176;49.156;7.810;2022-12-07T14:23:31;99147.84;;;3.85;80.11
75594;BME280;64176;49.156;7.810;2022-12-07T14:26:19;99124.63;;;3.79;80.50
75594;BME280;64176;49.156;7.810;2022-12-07T14:32:23;99127.84;;;3.72;79.65
75594;BME280;64176;49.156;7.810;2022-12-07T14:35:13;99140.19;;;3.87;80.45
75594;BME280;64176;49.156;7.810;2022-12-07T14:37:57;99117.53;;;3.69;80.86
75594;BME280;64176;49.156;7.810;2022-12-07T14:40:44;99135.63;;;3.75;81.82
75594;BME280;64176;49.156;7.810;2022-12-07T14:43:32;99139.84;;;3.75;81.55
75594;BME280;64176;49.156;7.810;2022-12-07T14:46:19;99136.69;;;3.83;81.60
75594;BME280;64176;49.156;7.810;2022-12-07T14:49:03;99135.72;;;3.80;81.74
75594;BME280;64176;49.156;7.810;2022-12-07T14:51:49;99141.72;;;3.80;81.93
75594;BME280;64176;49.156;7.810;2022-12-07T14:54:33;99145.09;;;3.79;81.28
75594;BME280;64176;49.156;7.810;2022-12-07T14:57:19;99139.94;;;3.78;81.56
75594;BME280;64176;49.156;7.810;2022-12-07T15:00:04;99135.72;;;3.80;81.80
75594;BME280;64176;49.156;7.810;2022-12-07T15:02:54;99138.97;;;3.74;81.89
75594;BME280;64176;49.156;7.810;2022-12-07T15:05:41;99132.69;;;3.63;82.36
75594;BME280;64176;49.156;7.810;2022-12-07T15:08:27;99136.28;;;3.70;82.42
75594;BME280;64176;49.156;7.810;2022-12-07T15:11:13;99138.59;;;3.62;83.21
75594;BME280;64176;49.156;7.810;2022-12-07T15:13:57;99136.97;;;3.64;83.61
75594;BME280;64176;49.156;7.810;2022-12-07T15:16:55;99141.94;;;3.59;84.33
75594;BME280;64176;49.156;7.810;2022-12-07T15:19:39;99134.09;;;3.53;84.39
75594;BME280;64176;49.156;7.810;2022-12-07T15:22:25;99129.00;;;3.55;84.58
75594;BME280;64176;49.156;7.810;2022-12-07T15:25:16;99138.59;;;3.62;84.90
75594;BME280;64176;49.156;7.810;2022-12-07T15:28:03;99138.34;;;3.54;85.05
75594;BME280;64176;49.156;7.810;2022-12-07T15:30:51;99142.63;;;3.55;84.56
75594;BME280;64176;49.156;7.810;2022-12-07T15:33:35;99139.28;;;3.56;84.82
75594;BME280;64176;49.156;7.810;2022-12-07T15:36:23;99140.03;;;3.54;85.22
75594;BME280;64176;49.156;7.810;2022-12-07T15:39:11;99135.78;;;3.53;85.37
75594;BME280;64176;49.156;7.810;2022-12-07T15:41:57;99136.38;;;3.46;85.70
75594;BME280;64176;49.156;7.810;2022-12-07T15:44:44;99130.34;;;3.44;85.77
75594;BME280;64176;49.156;7.810;2022-12-07T15:47:47;99130.31;;;3.42;85.71
75594;BME280;64176;49.156;7.810;2022-12-07T15:50:34;99136.16;;;3.38;86.16
75594;BME280;64176;49.156;7.810;2022-12-07T15:53:21;99126.16;;;3.46;85.63
75594;BME280;64176;49.156;7.810;2022-12-07T15:56:10;99129.47;;;3.42;86.00
75594;BME280;64176;49.156;7.810;2022-12-07T15:58:56;99128.50;;;3.38;86.35
75594;BME280;64176;49.156;7.810;2022-12-07T16:01:40;99110.50;;;3.35;86.36
75594;BME280;64176;49.156;7.810;2022-12-07T16:04:27;99123.47;;;3.41;85.76
75594;BME280;64176;49.156;7.810;2022-12-07T16:07:11;99121.91;;;3.46;85.69
75594;BME280;64176;49.156;7.810;2022-12-07T16:09:58;99110.03;;;3.47;85.22
75594;BME280;64176;49.156;7.810;2022-12-07T16:12:44;99089.97;;;3.32;85.25
75594;BME280;64176;49.156;7.810;2022-12-07T16:15:28;99098.56;;;3.34;85.68
75594;BME280;64176;49.156;7.810;2022-12-07T16:18:12;99101.03;;;3.31;85.49
75594;BME280;64176;49.156;7.810;2022-12-07T16:20:58;99099.19;;;3.27;85.41
75594;BME280;64176;49.156;7.810;2022-12-07T16:23:43;99101.78;;;3.28;85.60
75594;BME280;64176;49.156;7.810;2022-12-07T16:26:29;99103.53;;;3.29;85.72
75594;BME280;64176;49.156;7.810;2022-12-07T16:29:13;99099.78;;;3.18;85.65
75594;BME280;64176;49.156;7.810;2022-12-07T16:31:57;99112.81;;;3.27;85.80
75594;BME280;64176;49.156;7.810;2022-12-07T16:34:41;99102.56;;;3.26;85.90
75594;BME280;64176;49.156;7.810;2022-12-07T16:37:28;99098.09;;;3.19;85.83
75594;BME280;64176;49.156;7.810;2022-12-07T16:40:14;99093.75;;;3.16;86.06
75594;BME280;64176;49.156;7.810;2022-12-07T16:43:01;99091.19;;;3.16;85.94
75594;BME280;64176;49.156;7.810;2022-12-07T16:45:50;99095.13;;;3.07;86.63
75594;BME280;64176;49.156;7.810;2022-12-07T16:48:36;99094.09;;;3.02;86.57
75594;BME280;64176;49.156;7.810;2022-12-07T16:51:23;99080.88;;;2.88;87.01
75594;BME280;64176;49.156;7.810;2022-12-07T16:54:10;99078.44;;;2.91;86.79
75594;BME280;64176;49.156;7.810;2022-12-07T16:56:57;99081.75;;;2.88;86.72
75594;BME280;64176;49.156;7.810;2022-12-07T16:59:44;99085.84;;;2.83;87.09
75594;BME280;64176;49.156;7.810;2022-12-07T17:02:31;99088.09;;;2.74;87.87
75594;BME280;64176;49.156;7.810;2022-12-07T17:05:15;99086.88;;;2.63;87.36
75594;BME280;64176;49.156;7.810;2022-12-07T17:07:59;99076.09;;;2.46;87.86